Time;durP1;ratioP1;P1;durP2;ratioP2;P2;SDS_P1;SDS_P2;PMS_P1;PMS_P2;Temp;Humidity;BMP_temperature;BMP_pressure;BME280_temperature;BME280_humidity;BME280_pressure;Samples;Min_cycle;Max_cycle;Signal;HPM_P1;HPM_P2
2022/09/18 00:00:57;;;;;;;5.85;3.77;;;;;;;9.47;100.00;96931.75;1783622;80;20961;-88
2022/09/18 00:03:26;;;;;;;10.65;3.62;;;;;;;9.45;100.00;96925.84;1783208;80;20992;-85
2022/09/18 00:05:52;;;;;;;6.45;2.35;;;;;;;9.42;100.00;96926.45;1778906;80;20930;-85
2022/09/18 00:08:18;;;;;;;5.67;3.20;;;;;;;9.39;100.00;96930.53;1783145;80;20896;-89
2022/09/18 00:10:45;;;;;;;8.88;3.00;;;;;;;9.38;100.00;96925.42;1783608;80;20917;-89
2022/09/18 00:13:13;;;;;;;8.68;3.10;;;;;;;9.39;100.00;96919.72;1783326;80;21016;-89
2022/09/18 00:15:39;;;;;;;6.92;3.50;;;;;;;9.38;100.00;96920.02;1783623;80;21792;-86
2022/09/18 00:18:07;;;;;;;9.10;3.62;;;;;;;9.41;100.00;96912.13;1783200;80;20984;-88
2022/09/18 00:20:34;;;;;;;9.75;2.98;;;;;;;9.37;100.00;96908.41;1753405;80;21020;-88
2022/09/18 00:23:00;;;;;;;7.08;2.37;;;;;;;9.39;100.00;96906.20;1782509;80;21504;-87
2022/09/18 00:25:26;;;;;;;7.97;3.50;;;;;;;9.42;100.00;96907.52;1751464;80;21017;-88
2022/09/18 00:27:52;;;;;;;9.93;3.70;;;;;;;9.36;100.00;96913.56;1781633;80;21123;-85
2022/09/18 00:30:18;;;;;;;10.18;3.85;;;;;;;9.36;100.00;96918.97;1751623;80;20834;-88
2022/09/18 00:32:43;;;;;;;11.03;3.40;;;;;;;9.37;100.00;96911.66;1781885;79;20992;-86
2022/09/18 00:35:09;;;;;;;5.47;4.00;;;;;;;9.37;100.00;96926.53;1781920;80;20913;-88
2022/09/18 00:37:35;;;;;;;6.87;3.22;;;;;;;9.37;100.00;96915.16;1781851;80;20921;-87
2022/09/18 00:40:02;;;;;;;8.23;4.17;;;;;;;9.41;100.00;96914.03;1781752;80;21327;-86
2022/09/18 00:42:28;;;;;;;10.68;3.85;;;;;;;9.43;100.00;96919.39;1782827;80;21054;-87
2022/09/18 00:44:54;;;;;;;7.70;3.83;;;;;;;9.46;100.00;96918.78;1783336;80;21382;-85
2022/09/18 00:47:25;;;;;;;8.53;3.52;;;;;;;9.48;100.00;96919.83;1783402;80;21492;-87
2022/09/18 00:50:14;;;;;;;7.72;3.47;;;;;;;9.45;100.00;96921.78;1783278;80;20949;-86
2022/09/18 00:52:56;;;;;;;8.03;3.35;;;;;;;9.42;100.00;96922.39;1783933;80;20996;-88
2022/09/18 00:55:26;;;;;;;8.33;3.50;;;;;;;9.43;100.00;96918.03;1783461;80;20962;-86
2022/09/18 00:57:55;;;;;;;5.92;3.12;;;;;;;9.44;100.00;96923.69;1783238;80;21406;-85
2022/09/18 01:00:21;;;;;;;5.28;3.17;;;;;;;9.44;100.00;96912.08;1783629;80;27071;-89
2022/09/18 01:02:47;;;;;;;9.35;3.35;;;;;;;9.44;100.00;96921.53;1783310;80;21016;-86
2022/09/18 01:05:47;;;;;;;9.23;3.47;;;;;;;9.40;100.00;96916.45;1783102;80;20999;-88
2022/09/18 01:08:19;;;;;;;7.47;3.50;;;;;;;9.37;100.00;96916.52;1783323;80;21099;-87
2022/09/18 01:10:56;;;;;;;11.68;4.72;;;;;;;9.38;100.00;96920.02;1783532;80;20992;-86
2022/09/18 01:13:44;;;;;;;6.92;2.92;;;;;;;9.39;100.00;96919.72;1783172;80;20993;-88
2022/09/18 01:16:23;;;;;;;8.00;3.98;;;;;;;9.42;100.00;96926.45;1783484;80;21016;-86
2022/09/18 01:19:08;;;;;;;8.58;4.03;;;;;;;9.40;100.00;96919.99;1764876;80;21843;-86
2022/09/18 01:22:02;;;;;;;4.67;3.00;;;;;;;9.41;100.00;96920.80;1783318;80;21028;-86
2022/09/18 01:24:58;;;;;;;6.65;4.05;;;;;;;9.41;100.00;96922.95;1745999;82;20991;-87
2022/09/18 01:27:50;;;;;;;5.97;3.42;;;;;;;9.38;100.00;96916.77;1783524;80;20989;-88
2022/09/18 01:30:16;;;;;;;8.75;4.00;;;;;;;9.37;100.00;96918.42;1783507;80;20953;-88
2022/09/18 01:33:03;;;;;;;9.48;4.22;;;;;;;9.33;100.00;96922.28;1783537;80;21727;-86
2022/09/18 01:35:38;;;;;;;5.75;4.35;;;;;;;9.32;100.00;96930.14;1783765;80;21023;-86
2022/09/18 01:38:12;;;;;;;8.13;4.20;;;;;;;9.33;100.00;96929.04;1783444;80;21013;-87
2022/09/18 01:40:49;;;;;;;5.25;3.50;;;;;;;9.34;100.00;96933.34;1783513;80;21425;-85
2022/09/18 01:43:17;;;;;;;8.68;4.17;;;;;;;9.31;100.00;96936.09;1746331;81;21035;-89
2022/09/18 01:45:46;;;;;;;11.12;4.50;;;;;;;9.26;100.00;96932.13;1751217;82;21294;-89
2022/09/18 01:48:18;;;;;;;;;;;;;;;9.25;100.00;96936.48;1753195;81;20969;-86
2022/09/18 01:50:48;;;;;;;9.65;4.78;;;;;;;9.24;100.00;96934.33;1751104;82;20190;-88
2022/09/18 01:53:19;;;;;;;11.45;3.87;;;;;;;9.20;100.00;96936.00;1750880;82;20968;-86
2022/09/18 01:56:08;;;;;;;13.95;4.12;;;;;;;9.18;100.00;96931.45;1751260;81;21067;-86
2022/09/18 01:58:35;;;;;;;12.18;4.53;;;;;;;9.18;100.00;96942.81;1750949;82;21068;-89
2022/09/18 02:01:06;;;;;;;8.85;4.70;;;;;;;9.17;100.00;96941.21;1750943;81;21414;-86
2022/09/18 02:03:40;;;;;;;10.40;4.17;;;;;;;9.14;100.00;96942.59;1721363;82;21104;-90
2022/09/18 02:06:15;;;;;;;8.93;4.00;;;;;;;9.12;100.00;96943.44;1750967;81;20957;-86
2022/09/18 02:08:52;;;;;;;10.75;4.42;;;;;;;9.13;100.00;96945.04;1750865;81;21005;-89
2022/09/18 02:11:18;;;;;;;7.58;3.85;;;;;;;9.12;100.00;96948.05;1749943;82;21185;-88
2022/09/18 02:13:53;;;;;;;18.40;6.08;;;;;;;9.13;100.00;96940.19;1750823;82;22158;-88
2022/09/18 02:16:30;;;;;;;11.53;5.12;;;;;;;9.13;100.00;96940.19;1750835;82;21005;-85
2022/09/18 02:18:58;;;;;;;7.30;4.53;;;;;;;9.13;100.00;96946.39;1750798;81;21000;-89
2022/09/18 02:21:28;;;;;;;9.23;4.77;;;;;;;9.14;100.00;96945.84;1751257;81;21488;-86
2022/09/18 02:24:07;;;;;;;8.35;4.67;;;;;;;9.14;100.00;96952.05;1778189;80;22056;-88
2022/09/18 02:26:33;;;;;;;11.00;5.12;;;;;;;9.14;100.00;96946.64;1777177;80;20946;-89
2022/09/18 02:28:59;;;;;;;7.05;4.45;;;;;;;9.16;100.00;96947.17;1781629;80;20985;-88
2022/09/18 02:31:25;;;;;;;8.45;4.47;;;;;;;9.10;100.00;96949.70;1781947;80;20969;-86
2022/09/18 02:33:52;;;;;;;9.93;4.67;;;;;;;9.11;100.00;96955.35;1781810;80;20866;-89
2022/09/18 02:37:03;;;;;;;10.13;5.08;;;;;;;9.13;100.00;96952.34;1781863;80;21217;-87
2022/09/18 02:39:54;;;;;;;12.07;3.83;;;;;;;9.12;100.00;96956.95;1781732;80;21063;-86
2022/09/18 02:42:52;;;;;;;7.87;4.45;;;;;;;9.12;100.00;96956.95;1778185;80;20950;-86
2022/09/18 02:45:35;;;;;;;7.42;5.33;;;;;;;9.12;100.00;96953.45;1776444;80;20950;-88
2022/09/18 02:48:46;;;;;;;14.05;5.05;;;;;;;9.12;100.00;96961.55;1776549;80;21441;-89
2022/09/18 02:51:37;;;;;;;7.05;4.92;;;;;;;9.09;100.00;96960.26;1777404;80;21825;-88
2022/09/18 02:54:13;;;;;;;9.40;5.25;;;;;;;9.09;100.00;96966.21;1776623;80;21087;-87
2022/09/18 02:56:48;;;;;;;8.45;5.30;;;;;;;9.08;100.00;96964.06;1776796;80;21064;-89
2022/09/18 02:59:34;;;;;;;11.95;5.42;;;;;;;9.08;100.00;96962.70;1776445;80;21037;-88
2022/09/18 03:02:00;;;;;;;9.40;4.90;;;;;;;9.09;100.00;96959.45;1776644;80;20957;-85
2022/09/18 03:04:26;;;;;;;9.38;5.00;;;;;;;9.06;100.00;96963.56;1776520;80;21150;-86
2022/09/18 03:06:55;;;;;;;12.43;4.70;;;;;;;9.08;100.00;96957.85;1776679;80;20966;-88
2022/09/18 03:09:21;;;;;;;7.67;4.85;;;;;;;9.05;100.00;96965.98;1776555;80;20973;-87
2022/09/18 03:11:48;;;;;;;6.60;3.50;;;;;;;9.08;100.00;96965.96;1776572;80;21021;-88
2022/09/18 03:14:14;;;;;;;6.40;4.08;;;;;;;9.08;100.00;96965.41;1776288;80;21043;-86
2022/09/18 03:16:40;;;;;;;7.80;3.52;;;;;;;9.05;100.00;96967.33;1776657;80;21109;-88
2022/09/18 03:19:06;;;;;;;5.70;3.20;;;;;;;9.01;100.00;96963.08;1776166;80;20965;-89
2022/09/18 03:21:32;;;;;;;5.80;2.85;;;;;;;9.04;100.00;96958.42;1776731;80;20870;-86
2022/09/18 03:23:59;;;;;;;7.28;3.85;;;;;;;9.05;100.00;96964.08;1781203;80;20973;-88
2022/09/18 03:26:25;;;;;;;7.75;3.90;;;;;;;9.02;100.00;96963.33;1781831;80;21024;-86
2022/09/18 03:28:50;;;;;;;7.87;3.30;;;;;;;9.03;100.00;96964.12;1781525;80;22305;-86
2022/09/18 03:31:16;;;;;;;4.92;3.08;;;;;;;9.03;100.00;96960.08;1781716;80;20854;-88
2022/09/18 03:33:42;;;;;;;15.53;4.15;;;;;;;9.05;100.00;96965.98;1781753;80;20873;-89
2022/09/18 03:36:08;;;;;;;12.45;4.53;;;;;;;9.02;100.00;96961.98;1781929;80;20862;-88
2022/09/18 03:38:36;;;;;;;8.43;4.35;;;;;;;9.03;100.00;96964.12;1781777;80;21049;-86
2022/09/18 03:41:03;;;;;;;8.75;4.05;;;;;;;9.02;100.00;96963.33;1781813;80;21067;-88
2022/09/18 03:43:29;;;;;;;5.92;3.58;;;;;;;9.02;100.00;96965.23;1783264;80;21028;-86
2022/09/18 03:45:55;;;;;;;11.00;3.47;;;;;;;9.00;100.00;96967.44;1783292;80;20957;-88
2022/09/18 03:48:21;;;;;;;7.22;3.55;;;;;;;9.01;100.00;96974.44;1783190;80;21005;-88
2022/09/18 03:50:48;;;;;;;6.35;3.33;;;;;;;9.00;100.00;96968.78;1783419;80;20972;-86
2022/09/18 03:53:14;;;;;;;7.47;3.37;;;;;;;8.99;100.00;96973.39;1783396;80;21090;-88
2022/09/18 03:55:40;;;;;;;9.45;3.85;;;;;;;8.98;100.00;96977.19;1783295;80;20873;-88
2022/09/18 03:58:06;;;;;;;5.50;3.20;;;;;;;8.99;100.00;96973.94;1783246;80;21044;-86
2022/09/18 04:00:32;;;;;;;8.05;4.00;;;;;;;8.98;100.00;96979.89;1783320;80;20846;-86
2022/09/18 04:02:58;;;;;;;8.25;4.15;;;;;;;9.00;100.00;96972.84;1783346;80;20952;-88
2022/09/18 04:05:24;;;;;;;6.22;3.52;;;;;;;9.02;100.00;96967.94;1783394;80;21326;-88
2022/09/18 04:07:50;;;;;;;7.35;3.95;;;;;;;9.02;100.00;96971.98;1783375;80;21636;-86
2022/09/18 04:10:16;;;;;;;9.18;3.12;;;;;;;9.02;100.00;96966.03;1783326;80;20846;-88
2022/09/18 04:12:46;;;;;;;6.95;3.47;;;;;;;9.01;100.00;96964.98;1783473;80;20961;-88
2022/09/18 04:15:14;;;;;;;10.03;3.45;;;;;;;8.99;100.00;96973.94;1783249;80;20984;-86
2022/09/18 04:17:40;;;;;;;8.63;3.40;;;;;;;9.02;100.00;96969.28;1783211;80;21054;-86
2022/09/18 04:20:07;;;;;;;6.37;3.33;;;;;;;8.98;100.00;96978.54;1783271;80;20948;-85
2022/09/18 04:22:34;;;;;;;4.97;2.77;;;;;;;8.97;100.00;96976.94;1782743;80;21028;-86
2022/09/18 04:25:00;;;;;;;6.35;2.33;;;;;;;8.96;100.00;96975.86;1781612;80;21060;-88
2022/09/18 04:27:25;;;;;;;6.22;2.90;;;;;;;8.97;100.00;96982.34;1781851;80;20968;-88
2022/09/18 04:29:51;;;;;;;6.55;2.27;;;;;;;8.91;100.00;96978.11;1781609;80;21219;-87
2022/09/18 04:32:17;;;;;;;5.03;2.67;;;;;;;8.93;100.00;96979.95;1781704;80;20937;-85
2022/09/18 04:34:43;;;;;;;5.53;2.20;;;;;;;8.91;100.00;96986.77;1781839;80;21658;-86
2022/09/18 04:37:09;;;;;;;7.70;2.87;;;;;;;8.92;100.00;96978.91;1781773;80;20933;-87
2022/09/18 04:39:35;;;;;;;5.75;3.45;;;;;;;8.90;100.00;96979.20;1781737;80;21001;-88
2022/09/18 04:42:01;;;;;;;4.30;2.35;;;;;;;8.83;100.00;96976.62;1782801;80;21118;-87
2022/09/18 04:44:27;;;;;;;8.90;2.83;;;;;;;8.85;100.00;96979.27;1783422;80;20961;-85
2022/09/18 04:46:53;;;;;;;5.33;2.00;;;;;;;8.85;100.00;96984.67;1783530;80;21554;-88
2022/09/18 04:49:19;;;;;;;8.00;2.33;;;;;;;8.85;100.00;96986.58;1784714;80;21562;-85
2022/09/18 04:51:45;;;;;;;8.35;2.20;;;;;;;8.79;100.00;96977.73;1783829;80;20996;-87
2022/09/18 04:54:11;;;;;;;3.62;1.92;;;;;;;8.81;100.00;96988.27;1783467;80;20883;-88
2022/09/18 04:56:37;;;;;;;9.43;2.52;;;;;;;8.86;100.00;96992.23;1783699;80;20924;-87
2022/09/18 04:59:03;;;;;;;7.50;2.60;;;;;;;8.88;100.00;96999.48;1783449;80;22411;-88
2022/09/18 05:01:29;;;;;;;5.72;2.92;;;;;;;8.89;100.00;96997.06;1783698;80;20833;-87
2022/09/18 05:03:55;;;;;;;8.43;2.83;;;;;;;8.89;100.00;96995.72;1783594;80;21020;-87
2022/09/18 05:06:21;;;;;;;9.15;2.85;;;;;;;8.87;100.00;96998.69;1778656;80;21169;-85
2022/09/18 05:08:47;;;;;;;5.30;2.55;;;;;;;8.86;100.00;96996.28;1783652;80;20921;-86
2022/09/18 05:11:13;;;;;;;5.50;2.77;;;;;;;8.86;100.00;96991.68;1783449;80;20908;-85
2022/09/18 05:13:39;;;;;;;7.40;2.87;;;;;;;8.87;100.00;96992.48;1783516;80;20885;-87
2022/09/18 05:16:06;;;;;;;6.62;2.22;;;;;;;8.85;100.00;96997.37;1783410;80;20953;-88
2022/09/18 05:18:32;;;;;;;8.80;3.85;;;;;;;8.83;100.00;97000.38;1783514;80;21076;-88
2022/09/18 05:21:02;;;;;;;10.48;4.75;;;;;;;8.86;100.00;96995.73;1783424;80;20933;-86
2022/09/18 05:23:28;;;;;;;10.10;3.85;;;;;;;8.90;100.00;96998.66;1782294;80;21024;-86
2022/09/18 05:25:54;;;;;;;13.53;3.45;;;;;;;8.95;100.00;96997.22;1781797;80;20862;-86
2022/09/18 05:28:20;;;;;;;5.50;3.33;;;;;;;8.99;100.00;96999.61;1781705;80;21662;-88
2022/09/18 05:30:46;;;;;;;8.90;3.83;;;;;;;8.99;100.00;97001.76;1781772;80;21194;-88
2022/09/18 05:33:12;;;;;;;7.42;3.30;;;;;;;9.04;100.00;97000.31;1781791;80;20858;-88
2022/09/18 05:35:38;;;;;;;8.45;4.30;;;;;;;9.11;100.00;96999.94;1781787;80;21645;-86
2022/09/18 05:38:05;;;;;;;7.70;3.90;;;;;;;9.10;99.66;96996.19;1781838;80;21072;-88
2022/09/18 05:40:33;;;;;;;11.15;3.90;;;;;;;9.14;99.64;97000.70;1781929;80;20961;-86
2022/09/18 05:43:00;;;;;;;7.30;3.12;;;;;;;9.19;99.45;96997.92;1783448;80;21009;-88
2022/09/18 05:45:26;;;;;;;7.17;3.85;;;;;;;9.26;99.20;97000.25;1783459;80;21438;-86
2022/09/18 05:47:59;;;;;;;5.03;2.75;;;;;;;9.24;98.65;96995.70;1783579;80;21433;-88
2022/09/18 05:50:27;;;;;;;14.10;5.30;;;;;;;9.27;98.26;96998.60;1782800;80;21452;-87
2022/09/18 05:53:13;;;;;;;36.77;17.07;;;;;;;9.27;97.96;96998.60;1783612;80;20988;-88
2022/09/18 05:55:39;;;;;;;26.37;17.77;;;;;;;9.29;97.60;97005.05;1783565;80;21382;-88
2022/09/18 05:58:06;;;;;;;10.32;5.90;;;;;;;9.30;97.68;97003.95;1783438;80;21405;-88
2022/09/18 06:00:34;;;;;;;9.08;4.12;;;;;;;9.32;97.64;97007.19;1778677;80;21012;-88
2022/09/18 06:03:04;;;;;;;8.28;4.17;;;;;;;9.31;97.54;97005.03;1783350;80;21543;-86
2022/09/18 06:05:32;;;;;;;6.28;3.80;;;;;;;9.34;97.40;97003.63;1781778;80;21062;-89
2022/09/18 06:07:58;;;;;;;15.87;8.00;;;;;;;9.39;97.66;97000.83;1783768;80;21342;-85
2022/09/18 06:10:24;;;;;;;14.93;5.83;;;;;;;9.53;97.76;97004.93;1783494;80;20977;-86
2022/09/18 06:13:01;;;;;;;8.43;5.03;;;;;;;9.65;97.46;97003.89;1783489;80;20865;-89
2022/09/18 06:15:27;;;;;;;5.60;3.70;;;;;;;9.63;96.70;97001.23;1779025;80;20973;-88
2022/09/18 06:17:53;;;;;;;8.60;4.67;;;;;;;9.59;96.67;97008.61;1783533;80;20936;-87
2022/09/18 06:20:19;;;;;;;10.25;4.72;;;;;;;9.68;96.93;97006.57;1783435;80;21131;-86
2022/09/18 06:22:45;;;;;;;7.58;4.08;;;;;;;9.86;96.60;97009.75;1782711;80;20946;-85
2022/09/18 06:25:11;;;;;;;6.83;3.90;;;;;;;9.92;95.66;97008.56;1781806;80;20893;-86
2022/09/18 06:27:37;;;;;;;6.70;3.52;;;;;;;10.03;95.77;97014.57;1781706;80;21509;-86
2022/09/18 06:30:04;;;;;;;7.00;4.28;;;;;;;10.14;94.66;97012.70;1751268;80;21663;-88
2022/09/18 06:32:31;;;;;;;4.83;3.55;;;;;;;10.27;94.72;97019.83;1781710;80;21094;-86
2022/09/18 06:34:57;;;;;;;3.80;3.12;;;;;;;10.37;92.81;97025.03;1781865;80;20897;-86
2022/09/18 06:37:23;;;;;;;9.05;3.65;;;;;;;10.40;93.28;97019.00;1781954;80;20876;-88
2022/09/18 06:39:48;;;;;;;13.55;4.15;;;;;;;10.49;93.15;97021.80;1781887;80;20874;-88
2022/09/18 06:42:15;;;;;;;8.70;2.70;;;;;;;10.49;93.45;97025.86;1751102;80;20960;-87
2022/09/18 06:44:41;;;;;;;4.87;2.85;;;;;;;10.50;92.43;97028.81;1784946;80;21118;-88
2022/09/18 06:47:08;;;;;;;5.80;3.02;;;;;;;10.55;93.02;97028.72;1783552;80;20985;-85
2022/09/18 06:49:34;;;;;;;5.65;2.33;;;;;;;10.61;92.80;97023.45;1778813;80;20953;-88
2022/09/18 06:52:00;;;;;;;3.20;2.10;;;;;;;10.66;92.08;97020.06;1783175;80;20969;-88
2022/09/18 06:54:26;;;;;;;8.40;3.00;;;;;;;10.83;91.45;97013.20;1783703;80;20984;-86
2022/09/18 06:56:52;;;;;;;6.87;3.45;;;;;;;10.78;91.69;97020.91;1783168;80;21125;-87
2022/09/18 06:59:18;;;;;;;7.85;2.70;;;;;;;10.89;91.70;97018.77;1783185;80;20897;-88
2022/09/18 07:01:45;;;;;;;3.22;2.35;;;;;;;10.99;91.17;97023.39;1783185;80;21506;-88
2022/09/18 07:04:11;;;;;;;4.58;1.95;;;;;;;11.05;91.33;97025.44;1783264;80;21071;-88
2022/09/18 07:06:37;;;;;;;6.17;3.62;;;;;;;11.09;91.46;97013.42;1783320;80;20992;-86
2022/09/18 07:09:03;;;;;;;5.90;2.50;;;;;;;11.13;90.76;97013.06;1783226;80;21377;-88
2022/09/18 07:11:30;;;;;;;4.12;2.10;;;;;;;11.09;90.52;97021.55;1783262;80;20925;-88
2022/09/18 07:13:56;;;;;;;11.90;2.70;;;;;;;10.97;91.00;97022.91;1783129;80;21000;-88
2022/09/18 07:16:22;;;;;;;6.47;2.27;;;;;;;10.89;91.06;97020.92;1783409;80;20822;-88
2022/09/18 07:18:48;;;;;;;5.03;2.40;;;;;;;10.77;91.13;97027.44;1783233;80;21658;-88
2022/09/18 07:21:16;;;;;;;3.72;2.15;;;;;;;10.67;91.27;97031.14;1783247;80;21386;-85
2022/09/18 07:23:41;;;;;;;3.55;2.17;;;;;;;10.63;91.05;97028.80;1781951;80;20985;-86
2022/09/18 07:26:08;;;;;;;5.60;2.40;;;;;;;10.47;91.46;97033.49;1781631;80;20957;-86
2022/09/18 07:28:33;;;;;;;4.33;2.42;;;;;;;10.43;91.60;97031.95;1781561;80;20961;-88
2022/09/18 07:31:04;;;;;;;3.77;2.08;;;;;;;10.45;91.31;97029.73;1750052;80;20885;-88
2022/09/18 07:33:30;;;;;;;2.95;1.90;;;;;;;10.38;91.24;97034.20;1781729;80;22017;-88
2022/09/18 07:36:03;;;;;;;4.00;1.90;;;;;;;10.41;91.59;97030.88;1781602;80;20977;-88
2022/09/18 07:38:29;;;;;;;8.15;2.77;;;;;;;10.50;91.36;97031.52;1781599;80;20978;-87
2022/09/18 07:40:55;;;;;;;3.30;2.37;;;;;;;10.65;90.99;97038.78;1781942;80;21447;-88
2022/09/18 07:43:21;;;;;;;7.28;2.10;;;;;;;10.62;91.00;97033.17;1783413;80;20870;-88
2022/09/18 07:45:47;;;;;;;5.67;3.15;;;;;;;10.64;91.08;97043.16;1783464;80;21064;-86
2022/09/18 07:48:14;;;;;;;14.45;7.42;;;;;;;10.64;91.19;97036.37;1783266;80;21405;-86
2022/09/18 07:50:41;;;;;;;4.97;2.70;;;;;;;10.69;90.47;97038.44;1783428;80;21468;-88
2022/09/18 07:53:07;;;;;;;2.80;1.75;;;;;;;10.74;90.78;97045.08;1783395;80;20954;-85
2022/09/18 07:55:35;;;;;;;6.30;2.40;;;;;;;10.71;90.73;97046.25;1783440;80;21021;-86
2022/09/18 07:58:03;;;;;;;5.28;2.00;;;;;;;10.65;91.10;97050.97;1783326;80;21690;-88
2022/09/18 08:00:32;;;;;;;5.62;1.98;;;;;;;10.61;91.04;97053.25;1783406;80;20961;-87
2022/09/18 08:03:03;;;;;;;2.62;1.85;;;;;;;10.56;91.52;97051.44;1778741;80;21020;-86
2022/09/18 08:05:29;;;;;;;3.45;2.20;;;;;;;10.57;91.36;97050.33;1783418;80;21440;-88
2022/09/18 08:07:55;;;;;;;4.95;2.87;;;;;;;10.48;91.62;97051.34;1783430;80;20965;-86
2022/09/18 08:10:21;;;;;;;5.17;2.02;;;;;;;10.41;92.35;97049.83;1783234;80;21149;-85
2022/09/18 08:12:47;;;;;;;2.70;1.90;;;;;;;10.49;92.33;97051.59;1783327;80;20853;-85
2022/09/18 08:15:13;;;;;;;5.47;2.33;;;;;;;10.53;92.51;97051.25;1783479;80;20897;-87
2022/09/18 08:17:44;;;;;;;6.40;2.10;;;;;;;10.55;92.71;97053.89;1783302;80;21028;-88
2022/09/18 08:20:11;;;;;;;4.15;3.00;;;;;;;10.54;92.46;97052.30;1783335;80;21480;-86
2022/09/18 08:22:41;;;;;;;5.85;2.77;;;;;;;10.50;92.71;97053.19;1782935;80;22038;-86
2022/09/18 08:25:08;;;;;;;3.45;2.20;;;;;;;10.55;92.64;97056.61;1781615;80;20966;-85
2022/09/18 08:27:38;;;;;;;3.17;2.00;;;;;;;10.62;92.62;97051.59;1781734;80;21386;-85
2022/09/18 08:30:06;;;;;;;5.70;2.50;;;;;;;10.74;91.54;97048.34;1781268;80;21014;-87
2022/09/18 08:32:32;;;;;;;4.35;3.12;;;;;;;10.84;91.45;97050.83;1752764;80;20972;-86
2022/09/18 08:35:01;;;;;;;2.70;2.25;;;;;;;10.94;91.63;97049.83;1781936;80;21027;-86
2022/09/18 08:37:29;;;;;;;6.05;2.90;;;;;;;11.00;91.14;97046.67;1781527;80;20977;-89
2022/09/18 08:39:55;;;;;;;3.52;1.90;;;;;;;11.05;91.30;97045.77;1781824;80;20969;-85
2022/09/18 08:43:02;;;;;;;4.87;2.70;;;;;;;11.08;91.48;97048.42;1782623;80;21020;-85
2022/09/18 08:46:00;;;;;;;5.05;3.02;;;;;;;11.15;91.35;97046.89;1783617;80;21429;-86
2022/09/18 08:48:32;;;;;;;2.72;1.92;;;;;;;11.27;90.95;97047.13;1783452;80;21083;-88
2022/09/18 08:51:05;;;;;;;3.20;1.90;;;;;;;11.25;91.22;97046.64;1782937;80;20935;-86
2022/09/18 08:53:42;;;;;;;2.87;1.75;;;;;;;11.54;90.14;97044.88;1781200;80;20950;-88
2022/09/18 08:56:20;;;;;;;5.22;2.90;;;;;;;11.74;89.91;97040.84;1783300;80;20965;-86
2022/09/18 08:59:02;;;;;;;2.67;1.90;;;;;;;12.16;88.64;97044.68;1783330;80;20956;-85
2022/09/18 09:01:46;;;;;;;3.65;1.90;;;;;;;12.60;86.76;97044.50;1783282;80;21063;-86
2022/09/18 09:04:19;;;;;;;8.70;2.22;;;;;;;12.74;85.34;97044.39;1783135;80;21014;-89
2022/09/18 09:07:03;;;;;;;2.83;1.80;;;;;;;12.87;85.51;97046.16;1778351;80;21440;-86
2022/09/18 09:10:03;;;;;;;2.22;1.27;;;;;;;13.10;83.79;97041.95;1783452;80;21382;-85
2022/09/18 09:12:41;;;;;;;6.58;2.70;;;;;;;12.99;84.25;97039.55;1782642;80;20957;-86
2022/09/18 09:15:40;;;;;;;2.60;1.45;;;;;;;13.14;82.99;97035.53;1783729;80;21710;-85
2022/09/18 09:18:22;;;;;;;1.62;1.05;;;;;;;13.08;81.67;97041.47;1783110;80;21349;-85
2022/09/18 09:20:52;;;;;;;6.30;2.35;;;;;;;13.22;81.72;97032.05;1783386;80;20917;-89
2022/09/18 09:23:42;;;;;;;7.58;3.42;;;;;;;13.37;81.88;97028.61;1782206;80;21382;-89
2022/09/18 09:26:17;;;;;;;9.58;4.25;;;;;;;13.48;80.70;97030.66;1780250;80;20978;-88
2022/09/18 09:28:58;;;;;;;5.15;3.60;;;;;;;13.39;79.87;97025.80;1781569;80;21050;-86
2022/09/18 09:31:25;;;;;;;4.00;2.22;;;;;;;13.45;79.54;97032.68;1781543;80;21060;-87
2022/09/18 09:34:08;;;;;;;5.10;2.98;;;;;;;13.66;79.13;97025.20;1781766;80;21016;-89
2022/09/18 09:36:34;;;;;;;13.25;7.08;;;;;;;13.85;79.65;97029.73;1781649;80;20973;-89
2022/09/18 09:39:22;;;;;;;39.45;25.37;;;;;;;14.10;78.65;97026.70;1781562;80;20886;-89
2022/09/18 09:41:53;;;;;;;10.95;8.50;;;;;;;14.27;76.07;97031.25;1779531;80;21013;-85
2022/09/18 09:44:34;;;;;;;4.95;3.17;;;;;;;13.74;76.54;97026.53;1776496;80;21303;-89
2022/09/18 09:47:14;;;;;;;6.55;2.02;;;;;;;13.48;77.77;97020.34;1776351;80;20910;-88
2022/09/18 09:49:52;;;;;;;90.03;41.28;;;;;;;13.44;78.42;97024.28;1776587;80;20995;-88
2022/09/18 09:52:23;;;;;;;6.72;1.95;;;;;;;13.54;78.45;97019.06;1775773;80;21418;-86
2022/09/18 09:55:17;;;;;;;3.62;1.52;;;;;;;13.71;73.75;97039.45;1776755;80;21054;-86
2022/09/18 09:58:12;;;;;;;3.15;1.12;;;;;;;13.47;75.26;97027.71;1776300;80;21009;-85
2022/09/18 10:00:46;;;;;;;2.45;1.07;;;;;;;13.54;76.03;97030.75;1776686;80;21421;-85
2022/09/18 10:03:48;;;;;;;0.60;0.57;;;;;;;13.77;75.24;97036.80;1776606;80;21067;-85
2022/09/18 10:06:32;;;;;;;2.40;1.50;;;;;;;14.07;72.36;97036.30;1776220;79;21056;-88
2022/09/18 10:09:22;;;;;;;3.37;1.70;;;;;;;14.03;71.33;97036.73;1776316;80;21085;-88
2022/09/18 10:12:06;;;;;;;5.00;2.52;;;;;;;14.07;72.58;97030.85;1776519;80;21395;-86
2022/09/18 10:14:34;;;;;;;3.75;2.37;;;;;;;14.14;70.69;97027.63;1776173;80;21021;-89
2022/09/18 10:17:00;;;;;;;3.65;2.20;;;;;;;13.78;72.34;97031.59;1776544;80;20889;-89
2022/09/18 10:19:32;;;;;;;2.12;1.37;;;;;;;13.57;73.46;97030.66;1771872;80;21040;-86
2022/09/18 10:21:58;;;;;;;3.45;1.75;;;;;;;13.46;73.55;97034.28;1775357;80;21081;-88
2022/09/18 10:24:53;;;;;;;3.22;1.50;;;;;;;13.41;73.42;97034.43;1782005;80;20997;-87
2022/09/18 10:27:19;;;;;;;2.55;1.12;;;;;;;13.39;74.45;97037.24;1781601;80;20954;-86
2022/09/18 10:29:47;;;;;;;2.25;1.35;;;;;;;13.70;74.73;97038.41;1782225;80;21001;-86
2022/09/18 10:32:32;;;;;;;1.37;1.10;;;;;;;14.13;73.67;97035.56;1781734;80;20890;-85
2022/09/18 10:34:57;;;;;;;1.98;1.17;;;;;;;14.29;74.45;97033.91;1751416;80;21054;-86
2022/09/18 10:37:32;;;;;;;2.17;1.00;;;;;;;14.35;73.15;97035.30;1781549;79;21555;-85
2022/09/18 10:40:00;;;;;;;3.10;1.12;;;;;;;14.42;73.27;97037.52;1781866;80;21458;-85
2022/09/18 10:42:28;;;;;;;1.20;1.00;;;;;;;14.75;71.71;97040.42;1777962;80;21056;-89
2022/09/18 10:44:57;;;;;;;2.00;0.95;;;;;;;15.00;69.26;97037.30;1771836;80;21461;-88
2022/09/18 10:47:29;;;;;;;1.70;1.12;;;;;;;15.00;69.48;97045.48;1776334;79;21092;-86
2022/09/18 10:50:13;;;;;;;2.90;1.30;;;;;;;15.33;68.54;97032.47;1776610;80;20958;-88
2022/09/18 10:52:45;;;;;;;2.15;1.10;;;;;;;15.24;67.71;97049.72;1775976;80;21047;-86
2022/09/18 10:55:24;;;;;;;1.87;1.10;;;;;;;14.68;68.15;97044.23;1776531;80;21002;-88
2022/09/18 10:58:04;;;;;;;1.70;1.15;;;;;;;14.27;70.50;97068.03;1776556;80;21418;-86
2022/09/18 11:00:35;;;;;;;1.67;1.10;;;;;;;14.02;72.33;97063.73;1776879;80;21061;-88
2022/09/18 11:03:51;;;;;;;1.60;1.05;;;;;;;13.85;73.47;97063.77;1776420;80;20977;-85
2022/09/18 11:06:23;;;;;;;3.30;1.40;;;;;;;13.81;74.03;97074.49;1765431;79;20949;-88
2022/09/18 11:08:55;;;;;;;1.57;1.15;;;;;;;13.53;75.40;97071.34;1776472;80;21009;-88
2022/09/18 11:11:30;;;;;;;9.23;4.70;;;;;;;13.42;75.94;97067.91;1776665;80;21032;-88
2022/09/18 11:14:02;;;;;;;2.83;1.62;;;;;;;13.41;76.92;97077.97;1776206;80;21118;-88
2022/09/18 11:16:36;;;;;;;2.92;1.70;;;;;;;13.26;77.74;97099.67;1776469;80;21533;-85
2022/09/18 11:19:08;;;;;;;2.00;1.02;;;;;;;12.95;78.44;97115.27;1776408;80;20993;-86
2022/09/18 11:21:44;;;;;;;2.08;1.00;;;;;;;12.53;78.18;97101.78;1775839;80;20962;-89
2022/09/18 11:24:21;;;;;;;1.82;1.10;;;;;;;12.26;78.53;97101.44;1782948;80;20966;-85
2022/09/18 11:26:50;;;;;;;3.30;1.72;;;;;;;12.34;79.54;97110.18;1775444;80;21751;-85
2022/09/18 11:29:24;;;;;;;2.95;1.92;;;;;;;12.54;80.99;97110.17;1778601;80;20962;-85
2022/09/18 11:32:12;;;;;;;2.92;1.42;;;;;;;12.52;81.24;97106.42;1783216;80;20914;-85
2022/09/18 11:34:57;;;;;;;2.98;1.92;;;;;;;12.61;81.45;97103.17;1783396;80;20957;-86
2022/09/18 11:38:05;;;;;;;4.53;1.55;;;;;;;12.75;81.52;97097.63;1783282;80;20991;-88
2022/09/18 11:40:44;;;;;;;2.95;1.80;;;;;;;13.07;81.73;97103.20;1783144;80;21054;-88
2022/09/18 11:43:21;;;;;;;1.50;1.10;;;;;;;13.31;82.08;97091.89;1752184;80;21012;-86
2022/09/18 11:46:24;;;;;;;2.90;0.98;;;;;;;13.38;81.89;97092.22;1752632;81;21429;-86
2022/09/18 11:49:05;;;;;;;3.27;2.00;;;;;;;13.64;81.64;97091.41;1751928;80;21432;-86
2022/09/18 11:51:43;;;;;;;3.37;1.35;;;;;;;13.98;80.47;97090.56;1743564;81;21064;-88
2022/09/18 11:54:17;;;;;;;1.40;0.90;;;;;;;13.72;80.41;97091.41;1709186;83;21014;-85
2022/09/18 11:56:50;;;;;;;2.45;1.30;;;;;;;13.36;79.16;97102.63;1716337;83;20923;-88